Time;durP1;ratioP1;P1;durP2;ratioP2;P2;SDS_P1;SDS_P2;PMS_P1;PMS_P2;Temp;Humidity;BMP_temperature;BMP_pressure;BME280_temperature;BME280_humidity;BME280_pressure;Samples;Min_cycle;Max_cycle;Signal;HPM_P1;HPM_P2
2022/11/15 00:00:59;;;;;;;;;;;;;;;4.77;100.00;100676.11;1736500;81;21074;-49
2022/11/15 00:03:45;;;;;;;2.80;1.82;;;;;;;4.77;100.00;100680.11;1732878;81;21002;-48
2022/11/15 00:06:29;;;;;;;2.40;1.40;;;;;;;4.79;100.00;100672.98;1737754;81;21839;-48
2022/11/15 00:09:15;;;;;;;2.37;1.35;;;;;;;4.80;100.00;100671.64;1736079;81;21085;-48
2022/11/15 00:12:00;;;;;;;1.40;1.17;;;;;;;4.80;100.00;100663.64;1732559;81;21381;-48
2022/11/15 00:14:46;;;;;;;2.60;1.20;;;;;;;4.81;100.00;100664.52;1736960;81;21049;-49
2022/11/15 00:17:31;;;;;;;1.50;1.40;;;;;;;4.82;100.00;100661.84;1737366;81;21479;-49
2022/11/15 00:20:18;;;;;;;;;;;;;;;4.81;100.00;100655.19;1737512;81;22855;-49
2022/11/15 00:23:04;;;;;;;2.97;1.63;;;;;;;4.81;100.00;100646.73;1734255;81;20209;-47
2022/11/15 00:25:57;;;;;;;2.80;1.90;;;;;;;4.80;100.00;100635.62;1735611;81;21085;-48
2022/11/15 00:28:42;;;;;;;6.40;2.10;;;;;;;4.78;100.00;100639.20;1734120;81;21554;-47
2022/11/15 00:31:27;;;;;;;3.27;2.27;;;;;;;4.76;100.00;100637.03;1729251;80;21121;-48
2022/11/15 00:34:12;;;;;;;6.00;1.97;;;;;;;4.73;100.00;100638.38;1730958;81;21832;-48
2022/11/15 00:36:58;;;;;;;3.70;2.93;;;;;;;4.71;100.00;100635.73;1737627;81;21554;-48
2022/11/15 00:39:43;;;;;;;;;;;;;;;4.71;100.00;100634.39;1732121;81;21041;-48
2022/11/15 00:42:28;;;;;;;2.30;2.10;;;;;;;4.72;100.00;100629.50;1734792;81;20210;-48
2022/11/15 00:45:13;;;;;;;2.55;2.33;;;;;;;4.72;100.00;100616.61;1733188;81;26586;-47
2022/11/15 00:47:58;;;;;;;2.57;2.33;;;;;;;4.73;100.00;100613.93;1736532;80;21918;-48
2022/11/15 00:50:43;;;;;;;5.20;2.97;;;;;;;4.74;100.00;100614.81;1735935;81;21058;-48
2022/11/15 00:53:29;;;;;;;3.10;2.62;;;;;;;4.74;100.00;100606.81;1691502;83;21086;-48
2022/11/15 00:56:13;;;;;;;;;;;;;;;4.74;100.00;100610.81;1732377;82;21771;-48
2022/11/15 00:58:59;;;;;;;3.67;3.12;;;;;;;4.73;100.00;100613.93;1729762;82;20205;-48
2022/11/15 01:01:44;;;;;;;2.95;2.50;;;;;;;4.71;100.00;100602.39;1729304;82;22596;-48
2022/11/15 01:04:29;;;;;;;4.43;4.03;;;;;;;4.70;100.00;100595.28;1725383;81;21042;-48
2022/11/15 01:07:15;;;;;;;4.97;2.60;;;;;;;4.68;100.00;100590.89;1724188;82;21038;-48
2022/11/15 01:09:59;;;;;;;;;;;;;;;4.65;100.00;100589.13;1694444;83;21099;-48
2022/11/15 01:12:45;;;;;;;2.52;2.33;;;;;;;4.64;100.00;100586.03;1671365;84;20713;-47
2022/11/15 01:15:30;;;;;;;3.17;2.53;;;;;;;4.62;100.00;100589.16;1675452;83;21766;-48
2022/11/15 01:18:15;;;;;;;;;;;;;;;4.60;100.00;100586.95;1726549;82;21146;-47
2022/11/15 01:21:12;;;;;;;2.75;2.50;;;;;;;4.60;100.00;100584.28;1729931;82;20202;-48
2022/11/15 01:23:57;;;;;;;3.50;2.73;;;;;;;4.60;100.00;100580.73;1722282;81;21058;-48
2022/11/15 01:26:42;;;;;;;2.37;1.82;;;;;;;4.62;100.00;100582.94;1726315;82;21024;-48
2022/11/15 01:29:27;;;;;;;3.10;2.10;;;;;;;4.63;100.00;100586.92;1694301;83;22463;-48
2022/11/15 01:32:12;;;;;;;;;;;;;;;4.65;100.00;100589.13;1732402;81;21081;-48
2022/11/15 01:34:58;;;;;;;2.75;2.22;;;;;;;4.68;100.00;100584.22;1719550;82;20674;-48
2022/11/15 01:37:43;;;;;;;3.05;2.77;;;;;;;4.68;100.00;100583.74;1724723;82;21560;-49
2022/11/15 01:40:28;;;;;;;3.22;2.92;;;;;;;4.68;100.00;100577.08;1725944;81;21106;-49
2022/11/15 01:43:29;;;;;;;3.42;2.85;;;;;;;4.67;100.00;100567.34;1729393;81;21854;-49
2022/11/15 01:46:30;;;;;;;4.60;3.03;;;;;;;4.65;100.00;100564.25;1726253;82;21054;-48
2022/11/15 01:49:19;;;;;;;3.87;3.43;;;;;;;4.62;100.00;100566.94;1724237;81;21081;-48
2022/11/15 01:52:07;;;;;;;3.40;2.83;;;;;;;4.56;100.00;100558.56;1692069;82;21137;-48
2022/11/15 01:55:24;;;;;;;3.43;2.47;;;;;;;4.54;100.00;100557.24;1713614;82;21057;-48
2022/11/15 01:58:09;;;;;;;3.13;2.43;;;;;;;4.52;100.00;100559.03;1712636;82;21905;-48
2022/11/15 02:00:54;;;;;;;;;;;;;;;4.50;100.00;100546.20;1708662;82;21081;-48
2022/11/15 02:03:54;;;;;;;5.10;2.60;;;;;;;4.50;100.00;100543.98;1707813;82;20149;-46
2022/11/15 02:06:40;;;;;;;4.73;3.13;;;;;;;4.46;100.00;100536.45;1712032;82;21046;-48
2022/11/15 02:09:25;;;;;;;2.65;2.10;;;;;;;4.47;100.00;100540.00;1711343;82;21053;-47
2022/11/15 02:12:11;;;;;;;3.93;2.23;;;;;;;4.47;100.00;100540.00;1709530;82;21769;-46
2022/11/15 02:14:56;;;;;;;3.97;2.57;;;;;;;4.49;100.00;100541.77;1669151;84;21078;-46
2022/11/15 02:18:14;;;;;;;5.65;2.52;;;;;;;4.51;100.00;100541.27;1630798;85;21090;-46
2022/11/15 02:21:11;;;;;;;3.03;2.17;;;;;;;4.52;100.00;100532.82;1650729;85;21121;-47
2022/11/15 02:24:10;;;;;;;4.60;2.53;;;;;;;4.52;100.00;100525.70;1708553;82;22454;-46
2022/11/15 02:27:28;;;;;;;4.20;2.53;;;;;;;4.54;100.00;100525.70;1703355;82;21368;-48
2022/11/15 02:30:41;;;;;;;7.23;2.77;;;;;;;4.54;100.00;100525.70;1707537;82;21061;-47
2022/11/15 02:34:00;;;;;;;4.63;3.90;;;;;;;4.55;100.00;100524.80;1711391;82;21069;-48
2022/11/15 02:37:09;;;;;;;3.23;2.53;;;;;;;4.50;100.00;100515.53;1713709;82;21045;-48
2022/11/15 02:40:09;;;;;;;4.23;2.57;;;;;;;4.46;100.00;100522.23;1690121;82;21058;-48
2022/11/15 02:46:08;;;;;;;3.27;2.20;;;;;;;4.43;100.00;100525.81;1706442;82;21069;-47
2022/11/15 02:48:52;;;;;;;3.17;2.20;;;;;;;4.42;100.00;100516.52;1705229;82;21738;-47
2022/11/15 02:51:39;;;;;;;4.13;2.40;;;;;;;4.42;100.00;100516.04;1718618;81;21125;-47
2022/11/15 02:54:26;;;;;;;2.23;1.97;;;;;;;4.45;100.00;100512.47;1733427;81;21378;-47
2022/11/15 02:57:15;;;;;;;4.63;2.57;;;;;;;4.46;100.00;100507.58;1736517;81;21726;-48
2022/11/15 03:00:10;;;;;;;2.33;2.10;;;;;;;4.48;100.00;100514.66;1732028;81;21197;-48
2022/11/15 03:03:04;;;;;;;4.12;2.40;;;;;;;4.49;100.00;100502.22;1650312;85;25592;-47
2022/11/15 03:06:21;;;;;;;3.40;1.87;;;;;;;4.50;100.00;100503.54;1736731;81;21077;-48
2022/11/15 03:09:17;;;;;;;4.13;2.63;;;;;;;4.51;100.00;100497.73;1726103;81;21082;-48
2022/11/15 03:12:20;;;;;;;4.63;2.87;;;;;;;4.51;100.00;100497.28;1735934;81;21850;-48
2022/11/15 03:15:10;;;;;;;4.37;3.33;;;;;;;4.52;100.00;100492.83;1734940;81;21076;-48
2022/11/15 03:18:05;;;;;;;3.63;3.33;;;;;;;4.52;100.00;100487.50;1729902;81;21042;-48
2022/11/15 03:20:50;;;;;;;4.55;4.08;;;;;;;4.50;100.00;100475.55;1735245;81;21105;-48
2022/11/15 03:23:37;;;;;;;4.67;3.30;;;;;;;4.47;100.00;100484.02;1729914;81;21104;-48
2022/11/15 03:26:21;;;;;;;6.00;3.33;;;;;;;4.46;100.00;100473.80;1737203;81;21834;-49
2022/11/15 03:29:55;;;;;;;6.03;4.20;;;;;;;4.44;100.00;100457.39;1794658;78;23184;-48
2022/11/15 03:32:48;;;;;;;8.13;5.77;;;;;;;4.45;100.00;100462.70;1769578;79;21078;-48
2022/11/15 03:35:38;;;;;;;5.77;5.17;;;;;;;4.44;100.00;100462.27;1775038;78;22023;-48
2022/11/15 03:38:26;;;;;;;8.18;5.30;;;;;;;4.44;100.00;100456.94;1772092;79;21057;-47
2022/11/15 03:41:21;;;;;;;6.85;4.75;;;;;;;4.44;100.00;100453.39;1770485;79;21077;-48
2022/11/15 03:44:23;;;;;;;7.67;5.17;;;;;;;4.41;100.00;100443.67;1752682;79;21471;-48
2022/11/15 03:47:13;;;;;;;7.67;6.60;;;;;;;4.39;100.00;100439.25;1749135;80;21500;-48
2022/11/15 03:50:09;;;;;;;8.70;6.50;;;;;;;4.38;100.00;100433.03;1751870;80;21926;-48
2022/11/15 03:52:54;;;;;;;9.07;5.83;;;;;;;4.36;100.00;100429.50;1747286;80;21656;-48
2022/11/15 03:55:39;;;;;;;9.10;6.13;;;;;;;4.36;100.00;100431.27;1745485;80;21010;-48
2022/11/15 03:58:24;;;;;;;9.88;6.95;;;;;;;4.35;100.00;100428.17;1747214;80;21096;-47
2022/11/15 04:01:09;;;;;;;8.80;6.85;;;;;;;4.35;100.00;100426.84;1743059;80;21048;-47
2022/11/15 04:03:55;;;;;;;11.43;6.30;;;;;;;4.35;100.00;100425.06;1742517;80;21309;-48
2022/11/15 04:06:39;;;;;;;10.75;7.12;;;;;;;4.36;100.00;100425.50;1749985;80;21627;-48
2022/11/15 04:09:25;;;;;;;15.07;8.23;;;;;;;4.37;100.00;100418.39;1748480;80;21104;-47
2022/11/15 04:12:10;;;;;;;;;;;;;;;4.37;100.00;100417.05;1754269;80;21292;-48
2022/11/15 04:15:06;;;;;;;11.40;8.13;;;;;;;4.34;100.00;100411.30;1748952;80;20346;-48
2022/11/15 04:17:53;;;;;;;9.10;6.93;;;;;;;4.31;100.00;100411.36;1752178;80;22018;-47
2022/11/15 04:26:38;;;;;;;11.83;7.77;;;;;;;4.28;100.00;100403.84;1690587;83;21065;-50
2022/11/15 04:29:35;;;;;;;10.30;7.67;;;;;;;4.30;100.00;100403.37;1731202;80;21053;-48
2022/11/15 04:32:20;;;;;;;15.23;8.60;;;;;;;4.32;100.00;100402.47;1739294;80;23831;-48
2022/11/15 04:35:07;;;;;;;12.00;8.60;;;;;;;4.35;100.00;100398.86;1746720;80;21069;-50
2022/11/15 04:37:52;;;;;;;16.80;10.07;;;;;;;4.35;100.00;100391.75;1743053;80;21039;-50
2022/11/15 04:40:37;;;;;;;16.00;10.90;;;;;;;4.36;100.00;100388.63;1745886;80;21072;-50
2022/11/15 04:43:22;;;;;;;18.35;11.05;;;;;;;4.34;100.00;100397.97;1744723;80;21065;-49
2022/11/15 04:46:07;;;;;;;15.37;9.93;;;;;;;4.32;100.00;100384.26;1740051;80;21869;-50
2022/11/15 04:48:53;;;;;;;13.40;10.20;;;;;;;4.30;100.00;100388.27;1743807;80;21085;-49
2022/11/15 04:51:38;;;;;;;17.15;11.78;;;;;;;4.30;100.00;100384.72;1709566;82;21102;-49
2022/11/15 04:54:23;;;;;;;;;;;;;;;4.28;100.00;100386.06;1714684;82;21065;-48
2022/11/15 04:57:08;;;;;;;14.13;8.20;;;;;;;4.28;100.00;100390.06;1676304;83;20181;-48
2022/11/15 04:59:53;;;;;;;15.43;11.27;;;;;;;4.29;100.00;100384.28;1742950;80;21844;-49
2022/11/15 05:05:42;;;;;;;14.43;9.20;;;;;;;4.33;100.00;100384.25;1739817;80;20811;-48
2022/11/15 05:08:29;;;;;;;16.43;10.70;;;;;;;4.33;100.00;100376.25;1741846;81;21395;-48
2022/11/15 05:11:14;;;;;;;23.23;12.40;;;;;;;4.35;100.00;100377.09;1705556;82;21740;-48
2022/11/15 05:14:00;;;;;;;16.90;10.87;;;;;;;4.37;100.00;100374.41;1746736;80;21909;-49
2022/11/15 05:16:46;;;;;;;14.90;10.97;;;;;;;4.36;100.00;100369.52;1740689;80;21633;-48
2022/11/15 05:19:31;;;;;;;13.30;9.00;;;;;;;-144.06;100.00;116433.64;1738467;80;21043;-48
2022/11/15 15:47:19;;;;;;;19.07;13.43;;;;;;;6.32;100.00;99590.84;1794209;78;23569;-50
2022/11/15 15:49:46;;;;;;;15.83;13.38;;;;;;;6.27;100.00;99606.63;1766365;78;21041;-50
2022/11/15 15:52:13;;;;;;;19.12;13.93;;;;;;;6.23;100.00;99603.63;1764591;78;21899;-51
2022/11/15 15:54:40;;;;;;;14.20;12.68;;;;;;;6.21;100.00;99595.66;1769805;78;21045;-48
2022/11/15 15:57:07;;;;;;;15.85;13.48;;;;;;;6.22;100.00;99596.53;1771059;78;21077;-47
2022/11/15 15:59:34;;;;;;;17.40;14.75;;;;;;;6.22;100.00;99593.41;1766863;78;22191;-47
2022/11/15 16:02:01;;;;;;;17.15;13.58;;;;;;;6.22;100.00;99589.39;1762151;78;21048;-50
2022/11/15 16:04:28;;;;;;;16.85;13.55;;;;;;;6.25;100.00;99587.09;1767123;78;21807;-50
2022/11/15 16:07:02;;;;;;;18.55;14.78;;;;;;;6.26;100.00;99584.83;1773399;79;21494;-50
2022/11/15 16:12:16;;;;;;;20.02;15.55;;;;;;;6.33;100.00;99579.69;1765429;78;21124;-50
2022/11/15 16:14:43;;;;;;;20.97;14.00;;;;;;;6.35;100.00;99570.70;1763998;78;21037;-50
2022/11/15 16:17:20;;;;;;;18.75;13.88;;;;;;;6.38;100.00;99571.91;1767285;78;21817;-49
2022/11/15 16:19:48;;;;;;;17.15;13.80;;;;;;;6.41;100.00;99568.27;1763384;79;21152;-50
2022/11/15 16:22:14;;;;;;;19.02;14.60;;;;;;;6.43;100.00;99568.64;1773405;79;21493;-49
2022/11/15 16:24:40;;;;;;;16.30;13.62;;;;;;;6.48;100.00;99559.56;1766958;79;21214;-48
2022/11/15 16:27:15;;;;;;;19.57;15.25;;;;;;;6.51;100.00;99566.16;1764164;78;21076;-48
2022/11/15 16:29:42;;;;;;;17.42;13.83;;;;;;;6.53;100.00;99556.29;1768241;78;22445;-51
2022/11/15 16:32:09;;;;;;;15.90;13.65;;;;;;;6.53;100.00;99551.81;1770379;79;21010;-49
2022/11/15 16:34:35;;;;;;;13.85;12.30;;;;;;;6.54;100.00;99551.36;1766161;78;21123;-49
2022/11/15 16:37:02;;;;;;;16.48;13.43;;;;;;;6.53;100.00;99550.48;1769996;79;21044;-49
2022/11/15 16:39:29;;;;;;;14.13;12.60;;;;;;;6.54;100.00;99550.89;1770924;78;21538;-48
2022/11/15 16:41:59;;;;;;;14.95;12.43;;;;;;;6.54;100.00;99549.55;1769651;79;21834;-50
2022/11/15 16:44:26;;;;;;;14.73;12.53;;;;;;;6.55;100.00;99547.27;1748823;78;21672;-50
2022/11/15 16:46:52;;;;;;;15.10;11.53;;;;;;;6.56;100.00;99546.34;1720606;80;21089;-51
2022/11/15 16:49:19;;;;;;;18.15;13.48;;;;;;;6.57;100.00;99538.73;1715019;81;21066;-50
2022/11/15 16:51:47;;;;;;;17.98;12.28;;;;;;;6.59;100.00;99542.23;1679091;83;21048;-50
2022/11/15 16:54:14;;;;;;;14.13;11.38;;;;;;;6.61;100.00;99536.83;1714121;81;21846;-50
2022/11/15 16:56:41;;;;;;;18.98;13.20;;;;;;;6.63;100.00;99535.86;1716600;81;22488;-50
2022/11/15 16:59:12;;;;;;;15.08;12.58;;;;;;;6.64;100.00;99532.23;1709259;81;21113;-50
2022/11/15 17:01:45;;;;;;;16.00;12.63;;;;;;;6.65;100.00;99539.33;1714114;81;21077;-50
2022/11/15 17:04:12;;;;;;;15.85;11.88;;;;;;;6.66;100.00;99538.41;1712092;81;21138;-50
2022/11/15 17:06:39;;;;;;;15.48;12.65;;;;;;;6.65;100.00;99525.95;1708503;81;21914;-50
2022/11/15 17:09:15;;;;;;;15.08;11.80;;;;;;;6.64;100.00;99522.87;1710320;81;21471;-50
2022/11/15 17:11:42;;;;;;;14.30;12.60;;;;;;;6.63;100.00;99517.14;1694001;81;21581;-50
2022/11/15 17:14:09;;;;;;;16.60;13.35;;;;;;;6.63;100.00;99516.27;1717492;81;21066;-51
2022/11/15 17:16:37;;;;;;;15.30;11.68;;;;;;;6.63;100.00;99513.59;1714495;81;21073;-50
2022/11/15 17:19:05;;;;;;;14.73;12.40;;;;;;;6.63;100.00;99518.48;1709100;81;21620;-50
2022/11/15 17:21:31;;;;;;;12.88;11.38;;;;;;;6.64;100.00;99514.84;1712119;81;21304;-50
2022/11/15 17:23:58;;;;;;;13.70;11.83;;;;;;;6.64;100.00;99513.51;1717370;81;21051;-50
2022/11/15 17:26:25;;;;;;;17.62;12.78;;;;;;;6.66;100.00;99518.34;1716377;81;21034;-49
2022/11/15 17:28:55;;;;;;;16.48;13.28;;;;;;;6.67;100.00;99511.20;1710156;81;22236;-50
2022/11/15 17:31:22;;;;;;;14.23;12.78;;;;;;;6.69;100.00;99508.01;1716672;81;21774;-50
2022/11/15 17:33:49;;;;;;;16.27;13.00;;;;;;;6.71;100.00;99507.50;1711524;81;21042;-50
2022/11/15 17:36:15;;;;;;;18.65;14.47;;;;;;;6.73;100.00;99506.95;1712782;81;21041;-50
2022/11/15 17:38:42;;;;;;;16.70;14.87;;;;;;;6.73;100.00;99494.91;1712175;81;21523;-50
2022/11/15 17:41:13;;;;;;;18.00;13.40;;;;;;;6.73;100.00;99502.94;1712444;81;21156;-50
2022/11/15 17:43:40;;;;;;;20.80;14.53;;;;;;;6.72;100.00;99492.70;1714039;81;21949;-49
2022/11/15 17:46:10;;;;;;;17.57;13.88;;;;;;;6.73;100.00;99490.44;1709944;81;21022;-50
2022/11/15 17:48:37;;;;;;;16.25;13.80;;;;;;;6.74;100.00;99481.48;1712818;81;21078;-49
2022/11/15 17:51:06;;;;;;;18.57;14.80;;;;;;;6.74;100.00;99478.81;1711254;81;21135;-49
2022/11/15 17:53:39;;;;;;;17.07;13.50;;;;;;;6.72;100.00;99468.63;1713074;81;22345;-50
2022/11/15 17:56:11;;;;;;;21.70;13.08;;;;;;;6.74;100.00;99472.59;1713001;81;21819;-50
2022/11/15 17:58:38;;;;;;;17.55;12.93;;;;;;;6.73;100.00;99463.69;1711710;81;21072;-50
2022/11/15 18:01:08;;;;;;;16.50;12.20;;;;;;;6.75;100.00;99463.17;1710699;81;21086;-49
2022/11/15 18:03:36;;;;;;;14.40;12.07;;;;;;;6.76;100.00;99464.92;1720865;81;21129;-50
2022/11/15 18:06:05;;;;;;;16.42;12.80;;;;;;;6.77;100.00;99457.31;1714003;81;21117;-50
2022/11/15 18:08:36;;;;;;;18.25;13.93;;;;;;;6.78;100.00;99452.84;1720181;81;21841;-49
2022/11/15 18:11:11;;;;;;;16.05;13.48;;;;;;;6.78;100.00;99444.81;1719843;81;21041;-49
2022/11/15 18:13:38;;;;;;;17.12;13.15;;;;;;;6.77;100.00;99439.92;1713005;81;21103;-49
2022/11/15 18:16:11;;;;;;;19.77;13.75;;;;;;;6.76;100.00;99435.97;1706573;81;21254;-48
2022/11/15 18:18:37;;;;;;;16.70;13.85;;;;;;;6.75;100.00;99441.78;1713574;81;21067;-48
2022/11/15 18:21:11;;;;;;;16.17;14.03;;;;;;;6.73;100.00;99442.30;1711719;81;21940;-48
2022/11/15 18:23:37;;;;;;;14.98;12.43;;;;;;;6.73;100.00;99436.94;1708958;81;21530;-48
2022/11/15 18:26:05;;;;;;;14.47;12.82;;;;;;;6.72;100.00;99436.53;1712897;81;21071;-48
2022/11/15 18:28:38;;;;;;;18.30;12.70;;;;;;;6.73;100.00;99422.23;1712471;81;21527;-49
2022/11/15 18:31:14;;;;;;;14.65;11.57;;;;;;;6.75;100.00;99420.38;1713823;81;21077;-48
2022/11/15 18:33:42;;;;;;;16.73;12.07;;;;;;;6.76;100.00;99421.25;1708019;81;21885;-48
2022/11/15 18:36:11;;;;;;;13.78;11.40;;;;;;;6.77;100.00;99414.98;1709780;81;21041;-49
2022/11/15 18:38:39;;;;;;;17.35;12.58;;;;;;;6.78;100.00;99416.73;1713005;81;21049;-48
2022/11/15 18:41:16;;;;;;;17.75;13.08;;;;;;;6.80;100.00;99416.20;1712021;81;21466;-48
2022/11/15 18:43:42;;;;;;;14.73;12.05;;;;;;;6.80;100.00;99416.20;1716395;81;21050;-49
2022/11/15 18:46:13;;;;;;;16.07;13.88;;;;;;;6.80;100.00;99409.52;1723299;81;22572;-49
2022/11/15 18:48:41;;;;;;;17.05;12.90;;;;;;;6.79;100.00;99413.13;1727994;82;21579;-48
2022/11/15 18:51:14;;;;;;;17.42;14.23;;;;;;;6.77;100.00;99405.15;1723943;81;21369;-51
2022/11/15 18:53:41;;;;;;;16.17;12.73;;;;;;;6.77;100.00;99404.27;1726988;81;21323;-49
2022/11/15 18:56:14;;;;;;;15.38;11.83;;;;;;;6.76;100.00;99403.41;1695979;82;21355;-49
2022/11/15 18:58:44;;;;;;;16.17;11.97;;;;;;;6.74;100.00;99402.58;1691531;82;21847;-49
2022/11/15 19:01:18;;;;;;;14.83;11.45;;;;;;;6.75;100.00;99404.33;1698373;82;21238;-49
2022/11/15 19:03:46;;;;;;;15.78;11.80;;;;;;;6.77;100.00;99402.94;1695342;82;21065;-49
2022/11/15 19:06:17;;;;;;;16.45;12.70;;;;;;;6.76;100.00;99396.71;1730525;80;21053;-49
2022/11/15 19:08:46;;;;;;;17.60;12.82;;;;;;;6.75;100.00;99398.98;1725379;80;21618;-49
2022/11/15 19:11:19;;;;;;;13.10;11.80;;;;;;;6.75;100.00;99393.63;1729967;80;22226;-48
2022/11/15 19:13:47;;;;;;;16.23;12.65;;;;;;;6.76;100.00;99392.70;1696725;82;21075;-49
2022/11/15 19:16:15;;;;;;;15.55;12.98;;;;;;;6.75;100.00;99387.41;1728822;80;21113;-48
2022/11/15 19:18:41;;;;;;;13.90;11.03;;;;;;;6.76;100.00;99383.80;1729233;80;21065;-49
2022/11/15 19:21:10;;;;;;;19.07;13.20;;;;;;;6.75;100.00;99388.28;1729675;82;21041;-49
2022/11/15 19:23:40;;;;;;;16.25;13.32;;;;;;;6.76;100.00;99379.79;1727449;80;21809;-49
2022/11/15 19:26:12;;;;;;;16.67;12.03;;;;;;;6.76;100.00;99375.31;1725358;80;21046;-49
2022/11/15 19:28:39;;;;;;;16.75;13.08;;;;;;;6.77;100.00;99374.39;1725814;80;21078;-49
2022/11/15 19:31:13;;;;;;;15.65;13.38;;;;;;;6.76;100.00;99377.98;1722548;80;21053;-49
2022/11/15 19:33:40;;;;;;;13.35;11.93;;;;;;;6.75;100.00;99370.89;1699096;82;21012;-49
2022/11/15 19:36:14;;;;;;;17.98;11.63;;;;;;;6.74;100.00;99366.47;1687316;82;23143;-49
2022/11/15 19:38:41;;;;;;;18.27;12.28;;;;;;;6.73;100.00;99362.51;1724163;80;21078;-50
2022/11/15 19:41:11;;;;;;;13.72;11.40;;;;;;;6.71;100.00;99353.70;1729516;80;21116;-49
2022/11/15 19:43:37;;;;;;;13.85;11.40;;;;;;;6.69;100.00;99352.41;1727004;80;21120;-49
2022/11/15 19:46:05;;;;;;;14.15;11.80;;;;;;;6.69;100.00;99355.09;1694169;82;21030;-49
2022/11/15 19:48:33;;;;;;;15.18;12.35;;;;;;;6.68;100.00;99349.33;1690240;82;21845;-49
2022/11/15 19:51:01;;;;;;;12.73;10.88;;;;;;;6.68;100.00;99351.13;1700213;82;21472;-49
2022/11/15 19:53:27;;;;;;;15.00;11.55;;;;;;;6.68;100.00;99343.98;1698942;82;21527;-49
2022/11/15 19:56:01;;;;;;;13.83;11.20;;;;;;;6.69;100.00;99348.41;1698499;82;21085;-49
2022/11/15 19:58:28;;;;;;;15.30;12.57;;;;;;;6.70;100.00;99342.12;1723292;80;21049;-49
2022/11/15 20:01:06;;;;;;;13.72;10.72;;;;;;;6.72;100.00;99348.27;1726804;80;21863;-49
2022/11/15 20:03:34;;;;;;;11.48;10.28;;;;;;;6.73;100.00;99338.44;1731121;80;21117;-49
2022/11/15 20:06:10;;;;;;;16.70;12.05;;;;;;;6.74;100.00;99338.38;1690569;82;21031;-49
2022/11/15 20:08:37;;;;;;;11.75;10.50;;;;;;;6.75;100.00;99333.44;1695034;82;21574;-49
2022/11/15 20:11:05;;;;;;;17.92;12.20;;;;;;;6.74;100.00;99327.69;1697137;82;21077;-49
2022/11/15 20:13:31;;;;;;;13.85;10.13;;;;;;;6.74;100.00;99332.16;1728855;80;21833;-49
2022/11/15 20:15:58;;;;;;;14.93;10.18;;;;;;;6.74;100.00;99333.50;1727813;80;22149;-49
2022/11/15 20:18:26;;;;;;;13.53;11.18;;;;;;;6.72;100.00;99330.87;1725318;82;21069;-49
2022/11/15 20:20:55;;;;;;;10.35;9.15;;;;;;;6.71;100.00;99333.17;1731049;80;21070;-48
2022/11/15 20:23:21;;;;;;;12.63;9.63;;;;;;;6.71;100.00;99330.97;1699288;82;21520;-49
2022/11/15 20:25:47;;;;;;;12.37;10.60;;;;;;;6.71;100.00;99325.61;1724869;80;21894;-49
2022/11/15 20:28:17;;;;;;;10.18;9.13;;;;;;;6.70;100.00;99330.09;1698396;82;21440;-49
2022/11/15 20:30:45;;;;;;;14.53;10.63;;;;;;;6.73;100.00;99321.92;1693441;82;22528;-49
2022/11/15 20:33:12;;;;;;;11.93;9.63;;;;;;;6.74;100.00;99329.02;1725301;80;21109;-49
2022/11/15 20:35:40;;;;;;;13.35;9.33;;;;;;;6.74;100.00;99322.33;1724579;80;21029;-49
2022/11/15 20:38:07;;;;;;;11.38;8.70;;;;;;;6.75;100.00;99320.06;1730262;82;21837;-49
2022/11/15 20:40:34;;;;;;;12.03;9.98;;;;;;;6.75;100.00;99318.73;1725438;80;21024;-49
2022/11/15 20:43:00;;;;;;;11.22;9.33;;;;;;;6.76;100.00;99319.61;1699400;82;21098;-49
2022/11/15 20:45:26;;;;;;;11.83;10.20;;;;;;;6.77;100.00;99315.53;1728227;80;20981;-48
2022/11/15 20:47:58;;;;;;;11.18;10.03;;;;;;;6.78;100.00;99320.42;1692537;82;21504;-49
2022/11/15 20:50:25;;;;;;;10.68;9.58;;;;;;;6.78;100.00;99322.63;1726597;80;21965;-48
2022/11/15 20:52:52;;;;;;;13.38;11.15;;;;;;;6.78;100.00;99323.09;1726315;82;21042;-49
2022/11/15 20:55:18;;;;;;;13.85;12.33;;;;;;;6.78;100.00;99313.73;1725619;80;21080;-49
2022/11/15 20:57:45;;;;;;;13.58;11.38;;;;;;;6.77;100.00;99316.00;1694790;82;21012;-49
2022/11/15 21:00:12;;;;;;;13.50;10.55;;;;;;;6.76;100.00;99314.25;1727840;80;21061;-49
2022/11/15 21:02:56;;;;;;;13.50;10.63;;;;;;;6.74;100.00;99304.95;1691626;82;22338;-49
2022/11/15 21:05:23;;;;;;;11.40;10.13;;;;;;;6.73;100.00;99300.53;1726343;80;21042;-49
2022/11/15 21:07:49;;;;;;;10.40;9.43;;;;;;;6.72;100.00;99302.80;1727402;82;21030;-49
2022/11/15 21:13:02;;;;;;;11.53;9.20;;;;;;;6.74;100.00;99304.08;1692639;82;21563;-49
2022/11/15 21:15:29;;;;;;;11.57;9.83;;;;;;;6.73;100.00;99295.17;1695095;82;23032;-49
2022/11/15 21:17:55;;;;;;;12.37;9.55;;;;;;;6.75;100.00;99296.00;1694642;82;21073;-49
2022/11/15 21:20:22;;;;;;;10.80;9.50;;;;;;;6.75;100.00;99293.31;1696260;82;21462;-49
2022/11/15 21:22:48;;;;;;;11.80;10.32;;;;;;;6.75;100.00;99291.98;1724564;81;21556;-48
2022/11/15 21:25:15;;;;;;;16.17;11.45;;;;;;;6.77;100.00;99289.25;1728939;80;21119;-48
2022/11/15 21:27:42;;;;;;;15.05;11.75;;;;;;;6.77;100.00;99285.23;1731561;80;23473;-49
2022/11/15 21:30:11;;;;;;;13.50;10.38;;;;;;;6.79;100.00;99280.70;1720934;81;21575;-48
2022/11/15 21:32:38;;;;;;;14.45;11.33;;;;;;;6.78;100.00;99283.84;1724980;80;21055;-49
2022/11/15 21:35:05;;;;;;;12.88;11.20;;;;;;;6.77;100.00;99283.91;1727101;80;21049;-49
2022/11/15 21:37:32;;;;;;;13.55;11.60;;;;;;;6.76;100.00;99280.81;1730146;80;21085;-49
2022/11/15 21:39:59;;;;;;;13.85;11.95;;;;;;;6.76;100.00;99275.47;1723764;80;21839;-49
2022/11/15 21:42:25;;;;;;;16.85;11.55;;;;;;;6.75;100.00;99275.94;1724383;80;21656;-48
2022/11/15 21:44:52;;;;;;;13.22;10.58;;;;;;;6.74;100.00;99274.19;1732070;80;21445;-49
2022/11/15 21:47:18;;;;;;;11.75;9.90;;;;;;;6.74;100.00;99279.53;1730180;80;21053;-49
2022/11/15 21:49:44;;;;;;;11.38;9.73;;;;;;;6.74;100.00;99272.85;1733710;80;21045;-49
2022/11/15 21:52:11;;;;;;;13.75;10.95;;;;;;;6.76;100.00;99272.80;1693148;83;21766;-48
2022/11/15 21:54:39;;;;;;;12.98;10.03;;;;;;;6.76;100.00;99263.44;1723322;80;21778;-48
2022/11/15 21:57:06;;;;;;;13.38;9.83;;;;;;;6.77;100.00;99264.72;1710406;81;21183;-49
2022/11/15 22:02:13;;;;;;;11.35;9.48;;;;;;;6.79;100.00;99265.99;1697589;82;21059;-49
2022/11/15 22:02:14;;;;;;;14.50;9.88;;;;;;;6.81;100.00;99264.10;1695409;82;21705;-49
2022/11/15 22:04:41;;;;;;;12.20;10.40;;;;;;;6.82;100.00;99259.16;1700684;82;21948;-49
2022/11/15 22:07:07;;;;;;;12.23;10.13;;;;;;;6.84;100.00;99258.64;1697654;82;21003;-49
2022/11/15 22:09:34;;;;;;;12.43;11.10;;;;;;;6.83;100.00;99259.10;1697039;82;21018;-49
2022/11/15 22:12:00;;;;;;;15.25;11.28;;;;;;;6.84;100.00;99261.31;1701145;82;21091;-50
2022/11/15 22:14:26;;;;;;;10.68;9.58;;;;;;;6.82;100.00;99248.45;1694357;82;21126;-50
2022/11/15 22:16:53;;;;;;;12.98;10.25;;;;;;;6.81;100.00;99250.27;1726073;80;21834;-49
2022/11/15 22:19:20;;;;;;;11.53;9.50;;;;;;;6.80;100.00;99247.18;1727499;80;22160;-49
2022/11/15 22:21:47;;;;;;;12.23;9.40;;;;;;;6.80;100.00;99240.98;1725731;80;22391;-49
2022/11/15 22:24:13;;;;;;;11.85;10.65;;;;;;;6.79;100.00;99237.91;1691733;82;21132;-49
2022/11/15 22:26:40;;;;;;;11.43;9.85;;;;;;;6.80;100.00;99228.95;1697085;82;21284;-49
2022/11/15 22:29:07;;;;;;;11.50;9.90;;;;;;;6.80;100.00;99234.30;1690442;82;21842;-49
2022/11/15 22:31:33;;;;;;;12.60;10.70;;;;;;;6.80;100.00;99227.62;1724133;80;21521;-49
2022/11/15 22:34:00;;;;;;;11.60;10.40;;;;;;;6.81;100.00;99231.53;1727086;80;21054;-49
2022/11/15 22:36:28;;;;;;;12.65;10.38;;;;;;;6.82;100.00;99229.27;1730022;80;21657;-49
2022/11/15 22:38:55;;;;;;;16.77;12.15;;;;;;;6.82;100.00;99221.71;1694017;82;21034;-50
2022/11/15 22:41:21;;;;;;;12.05;10.90;;;;;;;6.83;100.00;99216.77;1694928;82;23052;-48
2022/11/15 22:43:47;;;;;;;13.60;10.65;;;;;;;6.83;100.00;99218.98;1726282;80;22105;-49
2022/11/15 22:46:14;;;;;;;16.45;11.05;;;;;;;6.84;100.00;99219.84;1701679;82;21023;-49
2022/11/15 22:48:41;;;;;;;15.95;11.63;;;;;;;6.82;100.00;99222.58;1702968;82;21061;-49
